createdAt,value
2023-03-21T00:01:34.570Z,99.90
2023-03-21T00:03:37.930Z,99.90
2023-03-21T00:05:42.077Z,99.90
2023-03-21T00:07:45.034Z,99.90
2023-03-21T00:09:47.798Z,99.90
2023-03-21T00:11:50.662Z,99.90
2023-03-21T00:13:53.486Z,99.90
2023-03-21T00:16:17.958Z,99.90
2023-03-21T00:18:20.986Z,99.90
2023-03-21T00:20:23.803Z,99.90
2023-03-21T00:22:27.590Z,99.90
2023-03-21T00:24:30.765Z,99.90
2023-03-21T00:26:33.638Z,99.90
2023-03-21T00:28:36.467Z,99.90
2023-03-21T00:30:41.150Z,99.90
2023-03-21T00:32:55.235Z,99.90
2023-03-21T00:35:21.529Z,99.90
2023-03-21T00:37:22.922Z,99.90
2023-03-21T00:39:26.087Z,99.90
2023-03-21T00:41:42.071Z,99.90
2023-03-21T00:43:46.274Z,99.90
2023-03-21T00:45:49.061Z,99.90
2023-03-21T00:47:51.999Z,99.90
2023-03-21T00:49:54.831Z,99.90
2023-03-21T00:52:08.657Z,99.90
2023-03-21T00:54:18.056Z,99.90
2023-03-21T00:56:20.839Z,99.90
2023-03-21T00:58:23.618Z,99.90
2023-03-21T01:00:26.610Z,99.90
2023-03-21T01:02:29.438Z,99.90
2023-03-21T01:04:32.216Z,99.90
2023-03-21T01:06:39.349Z,99.90
2023-03-21T01:08:52.096Z,99.90
2023-03-21T01:10:56.325Z,99.90
2023-03-21T01:12:59.197Z,99.90
2023-03-21T01:15:01.983Z,99.90
2023-03-21T01:17:04.763Z,99.90
2023-03-21T01:19:15.052Z,99.90
2023-03-21T01:21:25.306Z,99.90
2023-03-21T01:23:28.388Z,99.90
2023-03-21T01:25:32.494Z,99.90
2023-03-21T01:27:35.279Z,99.90
2023-03-21T01:29:38.051Z,99.90
2023-03-21T01:31:40.944Z,99.90
2023-03-21T01:33:43.898Z,99.90
2023-03-21T01:35:53.349Z,99.90
2023-03-21T01:37:58.366Z,99.90
2023-03-21T01:40:01.138Z,99.90
2023-03-21T01:42:05.525Z,99.90
2023-03-21T01:44:08.324Z,99.90
2023-03-21T01:46:23.436Z,99.90
2023-03-21T01:48:26.193Z,99.90
2023-03-21T01:50:29.198Z,99.90
2023-03-21T01:52:37.624Z,99.90
2023-03-21T01:54:41.271Z,99.90
2023-03-21T01:56:45.320Z,99.90
2023-03-21T01:58:49.452Z,99.90
2023-03-21T02:00:52.395Z,99.90
2023-03-21T02:03:11.294Z,99.90
2023-03-21T02:05:15.557Z,99.90
2023-03-21T02:07:19.566Z,99.90
2023-03-21T02:09:23.826Z,99.90
2023-03-21T02:11:27.991Z,99.90
2023-03-21T02:13:33.831Z,99.90
2023-03-21T02:15:38.309Z,99.90
2023-03-21T02:17:43.102Z,99.90
2023-03-21T02:20:13.076Z,99.90
2023-03-21T02:22:40.693Z,99.90
2023-03-21T02:25:21.269Z,99.90
2023-03-21T02:27:24.904Z,99.90
2023-03-21T02:30:02.154Z,99.90
2023-03-21T02:32:20.227Z,99.90
2023-03-21T02:34:52.091Z,99.90
2023-03-21T02:37:04.469Z,99.90
2023-03-21T02:39:09.570Z,99.90
2023-03-21T02:41:19.097Z,99.90
2023-03-21T02:43:25.605Z,99.90
2023-03-21T02:45:29.376Z,99.90
2023-03-21T02:47:34.614Z,99.90
2023-03-21T02:49:41.873Z,99.90
2023-03-21T02:51:45.024Z,99.90
2023-03-21T02:54:04.572Z,99.90
2023-03-21T02:56:14.182Z,99.90
2023-03-21T02:58:18.453Z,99.90
2023-03-21T03:00:23.042Z,99.90
2023-03-21T03:02:27.959Z,99.90
2023-03-21T03:04:31.083Z,99.90
2023-03-21T03:06:38.256Z,99.90
2023-03-21T03:08:56.348Z,99.90
2023-03-21T03:11:13.944Z,99.90
2023-03-21T03:13:22.477Z,99.90
2023-03-21T03:15:28.379Z,99.90
2023-03-21T03:17:44.714Z,99.90
2023-03-21T03:19:55.275Z,99.90
2023-03-21T03:21:59.629Z,99.90
2023-03-21T03:24:04.082Z,99.90
2023-03-21T03:26:09.601Z,99.90
2023-03-21T03:28:12.416Z,99.90
2023-03-21T03:30:15.418Z,99.90
2023-03-21T03:32:19.273Z,99.90
2023-03-21T03:34:23.916Z,99.90
2023-03-21T03:36:32.651Z,99.90
2023-03-21T03:38:35.861Z,99.90
2023-03-21T03:40:41.893Z,99.90
2023-03-21T03:42:47.473Z,99.90
2023-03-21T03:44:50.306Z,99.90
2023-03-21T03:46:54.670Z,99.90
2023-03-21T03:48:59.310Z,99.90
2023-03-21T03:51:03.490Z,99.90
2023-03-21T03:53:17.608Z,99.90
2023-03-21T03:55:21.566Z,99.90
2023-03-21T03:57:26.091Z,99.90
2023-03-21T03:59:30.218Z,99.90
2023-03-21T04:01:33.005Z,99.90
2023-03-21T04:03:48.129Z,99.90
2023-03-21T04:05:52.489Z,99.90
2023-03-21T04:07:55.284Z,99.90
2023-03-21T04:09:58.441Z,99.90
2023-03-21T04:12:01.256Z,99.90
2023-03-21T04:14:04.036Z,99.90
2023-03-21T04:16:09.320Z,99.90
2023-03-21T04:18:12.094Z,99.90
2023-03-21T04:20:23.607Z,99.90
2023-03-21T04:22:33.804Z,99.90
2023-03-21T04:24:37.467Z,99.90
2023-03-21T04:26:40.389Z,99.90
2023-03-21T04:28:43.178Z,99.90
2023-03-21T04:30:58.901Z,99.90
2023-03-21T04:33:05.402Z,99.90
2023-03-21T04:35:09.701Z,99.90
2023-03-21T04:37:13.476Z,99.90
2023-03-21T04:39:16.402Z,99.90
2023-03-21T04:41:19.312Z,99.90
2023-03-21T04:43:23.828Z,99.90
2023-03-21T04:45:26.612Z,99.90
2023-03-21T04:47:29.416Z,99.90
2023-03-21T04:49:33.579Z,99.90
2023-03-21T04:51:36.474Z,99.90
2023-03-21T04:53:39.525Z,99.90
2023-03-21T04:55:42.323Z,99.90
2023-03-21T04:57:45.210Z,99.90
2023-03-21T04:59:48.000Z,99.90
2023-03-21T05:01:50.934Z,99.90
2023-03-21T05:03:53.782Z,99.90
2023-03-21T05:05:57.934Z,99.90
2023-03-21T05:08:00.781Z,99.90
2023-03-21T05:10:04.646Z,99.90
2023-03-21T05:12:07.715Z,99.90
2023-03-21T05:14:12.196Z,99.90
2023-03-21T05:16:14.984Z,99.90
2023-03-21T05:18:24.893Z,99.90
2023-03-21T05:20:27.762Z,99.90
2023-03-21T05:22:40.808Z,99.90
2023-03-21T05:24:43.614Z,99.90
2023-03-21T05:26:50.269Z,99.90
2023-03-21T05:28:53.337Z,99.90
2023-03-21T05:30:56.180Z,99.90
2023-03-21T05:32:59.014Z,99.90
2023-03-21T05:35:01.884Z,99.90
2023-03-21T05:37:04.658Z,99.90
2023-03-21T05:39:08.771Z,99.90
2023-03-21T05:41:11.982Z,99.90
2023-03-21T05:43:14.740Z,99.90
2023-03-21T05:45:17.608Z,99.90
2023-03-21T05:47:20.442Z,99.90
2023-03-21T05:49:24.494Z,99.90
2023-03-21T05:51:27.359Z,99.90
2023-03-21T05:53:30.662Z,99.90
2023-03-21T05:55:34.779Z,99.90
2023-03-21T05:57:40.778Z,99.90
2023-03-21T05:59:43.560Z,99.90
2023-03-21T06:01:46.883Z,99.90
2023-03-21T06:03:49.730Z,99.90
2023-03-21T06:05:52.526Z,99.90
2023-03-21T06:07:55.514Z,99.90
2023-03-21T06:09:58.338Z,99.90
2023-03-21T06:12:02.453Z,99.90
2023-03-21T06:14:05.462Z,99.90
2023-03-21T06:16:08.946Z,99.90
2023-03-21T06:18:11.715Z,99.90
2023-03-21T06:20:14.743Z,99.90
2023-03-21T06:22:17.591Z,99.90
2023-03-21T06:24:20.377Z,99.90
2023-03-21T06:26:23.431Z,99.90
2023-03-21T06:28:27.587Z,99.90
2023-03-21T06:30:30.467Z,99.90
2023-03-21T06:32:33.374Z,99.90
2023-03-21T06:34:37.756Z,99.90
2023-03-21T06:36:44.839Z,99.90
2023-03-21T06:38:48.650Z,99.90
2023-03-21T06:40:51.417Z,99.90
2023-03-21T06:42:54.244Z,99.90
2023-03-21T06:44:58.406Z,99.90
2023-03-21T06:47:01.203Z,99.90
2023-03-21T06:49:04.060Z,99.90
2023-03-21T06:51:07.509Z,99.90
2023-03-21T06:53:10.813Z,99.90
2023-03-21T06:55:13.606Z,99.90
2023-03-21T06:57:17.928Z,99.90
2023-03-21T06:59:20.963Z,57.70
2023-03-21T07:01:27.611Z,24.70
2023-03-21T07:03:31.512Z,9.60
2023-03-21T07:05:36.125Z,1.00
2023-03-21T07:07:39.213Z,1.00
2023-03-21T07:09:42.236Z,1.00
2023-03-21T07:11:45.005Z,1.00
2023-03-21T07:13:48.673Z,1.00
2023-03-21T07:15:51.491Z,1.00
2023-03-21T07:17:55.601Z,1.00
2023-03-21T07:19:58.412Z,1.00
2023-03-21T07:22:01.442Z,1.00
2023-03-21T07:24:04.235Z,1.00
2023-03-21T07:26:07.665Z,1.00
2023-03-21T07:28:10.659Z,1.00
2023-03-21T07:30:13.956Z,1.00
2023-03-21T07:32:16.740Z,1.00
2023-03-21T07:34:20.889Z,1.00
2023-03-21T07:36:23.658Z,1.00
2023-03-21T07:38:26.648Z,1.00
2023-03-21T07:40:29.422Z,1.00
2023-03-21T07:44:39.930Z,1.00
2023-03-21T07:46:42.689Z,1.00
2023-03-21T07:48:45.473Z,1.00
2023-03-21T07:50:52.929Z,1.00
2023-03-21T07:52:55.711Z,1.00
2023-03-21T07:54:58.508Z,1.00
2023-03-21T07:57:01.279Z,1.00
2023-03-21T07:59:05.574Z,1.00
2023-03-21T08:01:08.529Z,1.00
2023-03-21T08:03:11.319Z,1.00
2023-03-21T08:05:14.157Z,1.00
2023-03-21T08:07:18.253Z,1.00
2023-03-21T08:09:21.064Z,1.00
2023-03-21T08:11:24.655Z,1.00
2023-03-21T08:13:27.723Z,1.00
2023-03-21T08:15:30.581Z,1.00
2023-03-21T08:17:33.317Z,1.00
2023-03-21T08:19:37.406Z,1.00
2023-03-21T08:21:40.183Z,1.00
2023-03-21T08:23:44.355Z,1.00
2023-03-21T08:25:47.121Z,1.00
2023-03-21T08:27:50.313Z,1.00
2023-03-21T08:29:53.106Z,1.00
2023-03-21T08:31:56.061Z,1.00
2023-03-21T08:33:58.811Z,1.00
2023-03-21T08:36:01.863Z,1.00
2023-03-21T08:38:04.788Z,1.00
2023-03-21T08:40:11.464Z,1.00
2023-03-21T08:42:14.926Z,1.00
2023-03-21T08:44:17.907Z,1.00
2023-03-21T08:46:20.735Z,1.00
2023-03-21T08:48:23.777Z,1.00
2023-03-21T08:50:29.523Z,1.00
2023-03-21T08:52:32.312Z,1.00
2023-03-21T08:54:35.494Z,1.00
2023-03-21T08:56:39.591Z,1.00
2023-03-21T08:58:42.359Z,1.00
2023-03-21T09:00:45.246Z,1.00
2023-03-21T09:02:49.376Z,1.00
2023-03-21T09:04:54.802Z,1.00
2023-03-21T09:06:57.769Z,1.00
2023-03-21T09:09:00.572Z,1.00
2023-03-21T09:11:03.371Z,1.00
2023-03-21T09:13:07.480Z,1.00
2023-03-21T09:15:12.064Z,1.00
2023-03-21T09:17:14.843Z,1.00
2023-03-21T09:19:18.408Z,1.00
2023-03-21T09:21:21.249Z,1.00
2023-03-21T09:23:24.331Z,1.00
2023-03-21T09:25:29.548Z,1.00
2023-03-21T09:27:33.439Z,1.00
2023-03-21T09:29:38.032Z,1.00
2023-03-21T09:31:40.881Z,1.00
2023-03-21T09:33:43.861Z,1.00
2023-03-21T09:35:46.810Z,1.00
2023-03-21T09:37:50.125Z,1.00
2023-03-21T09:39:53.084Z,1.00
2023-03-21T09:42:06.332Z,1.00
2023-03-21T09:44:17.390Z,1.00
2023-03-21T09:46:25.456Z,1.00
2023-03-21T09:48:39.505Z,1.00
2023-03-21T09:50:42.486Z,1.00
2023-03-21T09:52:48.177Z,1.00
2023-03-21T09:54:52.161Z,1.00
2023-03-21T09:56:56.256Z,1.00
2023-03-21T09:58:59.315Z,1.00
2023-03-21T10:01:05.328Z,1.00
2023-03-21T10:03:15.433Z,1.00
2023-03-21T10:05:19.572Z,1.00
2023-03-21T10:07:22.637Z,1.00
2023-03-21T10:09:25.931Z,1.00
2023-03-21T10:11:30.966Z,1.00
2023-03-21T10:13:34.933Z,1.00
2023-03-21T10:15:38.062Z,1.00
2023-03-21T10:17:43.469Z,1.00
2023-03-21T10:19:49.257Z,1.00
2023-03-21T10:22:02.361Z,1.00
2023-03-21T10:24:06.367Z,1.00
2023-03-21T10:26:11.449Z,1.00
2023-03-21T10:28:17.483Z,1.00
2023-03-21T10:30:27.337Z,1.00
2023-03-21T10:32:30.110Z,1.00
2023-03-21T10:34:34.266Z,1.00
2023-03-21T10:36:38.630Z,1.00
2023-03-21T10:38:43.618Z,1.00
2023-03-21T10:40:46.426Z,1.00
2023-03-21T10:42:49.210Z,1.00
2023-03-21T10:44:52.740Z,1.00
2023-03-21T10:46:56.413Z,1.00
2023-03-21T10:48:59.354Z,1.00
2023-03-21T10:51:02.199Z,1.00
2023-03-21T10:53:10.710Z,1.00
2023-03-21T10:55:25.130Z,1.00
2023-03-21T10:57:27.905Z,1.00
2023-03-21T10:59:36.673Z,1.00
2023-03-21T11:01:42.512Z,1.00
2023-03-21T11:03:46.827Z,1.00
2023-03-21T11:05:49.649Z,1.00
2023-03-21T11:08:03.314Z,1.00
2023-03-21T11:10:19.939Z,1.00
2023-03-21T11:12:31.530Z,1.00
2023-03-21T11:14:37.181Z,1.00
2023-03-21T11:16:41.254Z,1.00
2023-03-21T11:18:44.834Z,1.00
2023-03-21T11:20:51.314Z,1.00
2023-03-21T11:22:55.767Z,1.00
2023-03-21T11:24:59.897Z,1.00
2023-03-21T11:27:07.062Z,1.00
2023-03-21T11:29:22.015Z,1.00
2023-03-21T11:31:27.053Z,1.00
2023-03-21T11:33:32.567Z,1.00
2023-03-21T11:35:37.095Z,1.00
2023-03-21T11:37:41.143Z,1.00
2023-03-21T11:39:43.913Z,1.00
2023-03-21T11:41:48.913Z,1.00
2023-03-21T11:43:54.210Z,1.00
2023-03-21T11:45:58.229Z,1.00
2023-03-21T11:48:01.759Z,1.00
2023-03-21T11:50:15.195Z,1.00
2023-03-21T11:52:21.974Z,1.00
2023-03-21T11:54:28.186Z,1.00
2023-03-21T11:56:33.236Z,1.00
2023-03-21T11:58:43.976Z,1.00
2023-03-21T12:00:51.452Z,1.00
2023-03-21T12:03:19.495Z,1.00
2023-03-21T12:05:25.111Z,1.00
2023-03-21T12:07:44.807Z,1.00
2023-03-21T12:09:48.838Z,1.00
2023-03-21T12:11:56.424Z,1.00
2023-03-21T12:14:03.729Z,1.00
2023-03-21T12:16:14.529Z,1.00
2023-03-21T12:18:27.301Z,1.00
2023-03-21T12:20:42.121Z,1.00
2023-03-21T12:22:51.150Z,1.00
2023-03-21T12:24:55.838Z,1.00
2023-03-21T12:27:00.971Z,1.00
2023-03-21T12:29:30.042Z,1.00
2023-03-21T12:31:37.638Z,1.00
2023-03-21T12:33:50.930Z,1.00
2023-03-21T12:36:00.801Z,1.00
2023-03-21T12:38:13.412Z,1.00
2023-03-21T12:40:21.505Z,1.00
2023-03-21T12:43:03.225Z,1.00
2023-03-21T12:45:15.360Z,1.00
2023-03-21T12:47:22.308Z,1.00
2023-03-21T12:49:27.735Z,1.00
2023-03-21T12:51:32.708Z,1.00
2023-03-21T12:53:40.407Z,1.00
2023-03-21T12:55:43.169Z,1.00
2023-03-21T12:57:57.233Z,1.00
2023-03-21T13:00:02.060Z,1.00
2023-03-21T13:02:16.820Z,1.00
2023-03-21T13:04:32.847Z,1.00
2023-03-21T13:06:36.602Z,1.00
2023-03-21T13:08:39.822Z,1.00
2023-03-21T13:10:43.145Z,1.00
2023-03-21T13:12:50.218Z,1.00
2023-03-21T13:15:00.372Z,1.00
2023-03-21T13:17:04.811Z,1.00
2023-03-21T13:19:14.485Z,1.00
2023-03-21T13:21:19.579Z,1.00
2023-03-21T13:23:22.763Z,1.00
2023-03-21T13:25:26.333Z,1.00
2023-03-21T13:27:29.862Z,1.00
2023-03-21T13:29:33.706Z,1.00
2023-03-21T13:31:51.029Z,1.00
2023-03-21T13:33:55.273Z,1.00
2023-03-21T13:36:05.217Z,1.00
2023-03-21T13:38:13.643Z,1.00
2023-03-21T13:40:22.646Z,1.00
2023-03-21T13:42:26.052Z,1.00
2023-03-21T13:44:34.166Z,1.00
2023-03-21T13:46:50.580Z,1.00
2023-03-21T13:49:00.383Z,4.60
2023-03-21T13:51:03.707Z,7.70
2023-03-21T13:53:21.595Z,74.40
2023-03-21T13:55:24.553Z,63.10
2023-03-21T13:57:40.125Z,99.90
2023-03-21T13:59:43.991Z,99.90
2023-03-21T14:01:59.600Z,99.90
2023-03-21T14:04:06.525Z,99.90
2023-03-21T14:06:09.803Z,99.90
2023-03-21T14:08:27.943Z,99.90
2023-03-21T14:10:35.519Z,99.90
2023-03-21T14:12:39.326Z,99.90
2023-03-21T14:14:43.487Z,99.90
2023-03-21T14:16:46.487Z,99.90
2023-03-21T14:18:54.407Z,99.90
2023-03-21T14:20:58.410Z,99.90
2023-03-21T14:23:01.328Z,99.90
2023-03-21T14:25:05.949Z,99.90
2023-03-21T14:27:08.862Z,99.90
2023-03-21T14:29:25.846Z,99.90
2023-03-21T14:31:29.486Z,99.90
2023-03-21T14:33:33.376Z,99.90
2023-03-21T14:35:36.147Z,99.90
2023-03-21T14:37:40.666Z,99.90
2023-03-21T14:39:43.451Z,99.90
2023-03-21T14:41:49.789Z,99.90
2023-03-21T14:44:12.946Z,99.90
2023-03-21T14:46:15.852Z,99.90
2023-03-21T14:48:18.770Z,99.90
2023-03-21T14:50:23.374Z,99.90
2023-03-21T14:52:27.008Z,99.90
2023-03-21T14:54:29.999Z,99.90
2023-03-21T14:56:32.783Z,99.90
2023-03-21T14:58:38.431Z,99.90
2023-03-21T15:00:41.578Z,99.90
2023-03-21T15:02:45.970Z,99.90
2023-03-21T15:04:51.398Z,99.90
2023-03-21T15:06:56.013Z,99.90
2023-03-21T15:08:59.639Z,69.40
2023-03-21T15:11:07.177Z,71.00
2023-03-21T15:13:17.441Z,42.80
2023-03-21T15:15:23.876Z,23.50
2023-03-21T15:17:28.204Z,7.10
2023-03-21T15:19:32.810Z,1.00
2023-03-21T15:21:36.645Z,1.00
2023-03-21T15:23:40.482Z,1.00
2023-03-21T15:25:43.372Z,1.00
2023-03-21T15:27:46.168Z,1.00
2023-03-21T15:29:49.152Z,1.00
2023-03-21T15:31:53.324Z,1.00
2023-03-21T15:33:56.444Z,1.00
2023-03-21T15:35:59.546Z,1.00
2023-03-21T15:38:04.574Z,1.00
2023-03-21T15:40:11.307Z,1.00
2023-03-21T15:42:28.846Z,1.00
2023-03-21T15:44:32.091Z,1.00
2023-03-21T15:46:41.028Z,1.00
2023-03-21T15:48:45.337Z,1.00
2023-03-21T15:50:50.282Z,1.00
2023-03-21T15:52:53.327Z,1.00
2023-03-21T15:54:56.866Z,1.00
2023-03-21T15:57:03.329Z,1.00
2023-03-21T15:59:06.490Z,1.00
2023-03-21T16:01:12.190Z,1.00
2023-03-21T16:03:17.599Z,1.00
2023-03-21T16:05:27.389Z,1.00
2023-03-21T16:07:30.506Z,1.00
2023-03-21T16:09:40.734Z,1.00
2023-03-21T16:11:44.201Z,1.00
2023-03-21T16:13:47.019Z,1.00
2023-03-21T16:15:49.817Z,1.00
2023-03-21T16:17:54.499Z,1.00
2023-03-21T16:19:57.311Z,1.00
2023-03-21T16:22:01.461Z,1.00
2023-03-21T16:24:04.394Z,1.00
2023-03-21T16:26:07.596Z,1.00
2023-03-21T16:28:12.075Z,1.00
2023-03-21T16:30:15.852Z,1.00
2023-03-21T16:32:20.459Z,1.00
2023-03-21T16:34:23.303Z,1.00
2023-03-21T16:36:26.936Z,1.00
2023-03-21T16:38:31.077Z,1.00
2023-03-21T16:40:36.021Z,1.00
2023-03-21T16:42:39.952Z,1.00
2023-03-21T16:44:42.717Z,1.00
2023-03-21T16:46:47.082Z,1.00
2023-03-21T16:48:50.936Z,1.00
2023-03-21T16:50:53.684Z,1.00
2023-03-21T16:52:56.778Z,1.00
2023-03-21T16:55:00.949Z,1.00
2023-03-21T16:57:04.607Z,1.00
2023-03-21T16:59:07.949Z,1.00
2023-03-21T17:01:13.744Z,1.00
2023-03-21T17:03:18.989Z,1.00
2023-03-21T17:05:22.044Z,1.00
2023-03-21T17:07:24.826Z,1.00
2023-03-21T17:09:27.916Z,1.00
2023-03-21T17:11:36.049Z,1.00
2023-03-21T17:13:38.852Z,1.00
2023-03-21T17:15:42.131Z,1.00
2023-03-21T17:17:45.032Z,1.00
2023-03-21T17:19:47.881Z,1.00
2023-03-21T17:21:50.686Z,1.00
2023-03-21T17:23:53.508Z,1.00
2023-03-21T17:25:56.630Z,1.00
2023-03-21T17:28:00.814Z,1.00
2023-03-21T17:30:03.600Z,1.00
2023-03-21T17:32:06.487Z,1.00
2023-03-21T17:34:09.733Z,1.00
2023-03-21T17:36:14.554Z,1.00
2023-03-21T17:38:17.879Z,1.00
2023-03-21T17:40:22.261Z,1.00
2023-03-21T17:42:25.034Z,1.00
2023-03-21T17:44:29.150Z,1.00
2023-03-21T17:46:33.591Z,1.00
2023-03-21T17:48:36.413Z,1.00
2023-03-21T17:50:39.909Z,1.00
2023-03-21T17:52:42.912Z,1.00
2023-03-21T17:54:45.690Z,1.00
2023-03-21T17:56:48.493Z,1.00
2023-03-21T17:58:51.322Z,1.00
2023-03-21T18:00:55.459Z,1.00
2023-03-21T18:02:58.261Z,1.00
2023-03-21T18:05:01.348Z,1.00
2023-03-21T18:07:04.181Z,1.00
2023-03-21T18:09:11.392Z,1.00
2023-03-21T18:11:15.240Z,1.00
2023-03-21T18:13:18.047Z,1.00
2023-03-21T18:15:20.957Z,1.00
2023-03-21T18:17:26.000Z,1.00
2023-03-21T18:19:28.825Z,1.00
2023-03-21T18:21:33.031Z,1.00
2023-03-21T18:23:35.996Z,1.00
2023-03-21T18:25:38.821Z,1.00
2023-03-21T18:28:06.779Z,1.00
2023-03-21T18:30:28.543Z,1.00
2023-03-21T18:32:29.199Z,1.00
2023-03-21T18:34:32.048Z,1.00
2023-03-21T18:36:35.545Z,1.00
2023-03-21T18:38:38.488Z,1.00
2023-03-21T18:40:41.813Z,1.00
2023-03-21T18:43:27.386Z,1.00
2023-03-21T18:45:08.949Z,1.00
2023-03-21T18:47:11.866Z,1.00
2023-03-21T18:51:39.840Z,30.20
2023-03-21T18:53:42.645Z,55.40
2023-03-21T18:55:47.414Z,53.90
2023-03-21T18:57:52.242Z,28.10
2023-03-21T18:59:55.048Z,11.50
2023-03-21T19:01:57.850Z,1.00
2023-03-21T19:04:20.128Z,1.00
2023-03-21T19:06:25.124Z,1.00
2023-03-21T19:08:28.054Z,1.00
2023-03-21T19:10:31.058Z,1.00
2023-03-21T19:12:34.076Z,1.00
2023-03-21T19:14:36.879Z,1.00
2023-03-21T19:17:04.859Z,1.00
2023-03-21T19:19:02.647Z,1.00
2023-03-21T19:21:06.319Z,1.00
2023-03-21T19:23:10.944Z,8.30
2023-03-21T19:25:14.651Z,33.10
2023-03-21T19:27:17.507Z,60.90
2023-03-21T19:29:20.529Z,81.50
2023-03-21T19:31:24.194Z,88.10
2023-03-21T19:33:27.128Z,92.00
2023-03-21T19:35:29.939Z,97.20
2023-03-21T19:37:35.233Z,94.50
2023-03-21T19:39:39.804Z,95.70
2023-03-21T19:41:42.693Z,98.80
2023-03-21T19:43:53.708Z,57.00
2023-03-21T19:45:58.005Z,1.00
2023-03-21T19:48:00.878Z,1.00
2023-03-21T19:50:40.855Z,1.00
2023-03-21T19:52:26.626Z,1.00
2023-03-21T19:54:30.320Z,1.00
2023-03-21T19:56:34.915Z,1.00
2023-03-21T19:58:37.784Z,1.00
2023-03-21T20:00:40.628Z,1.00
2023-03-21T20:02:45.226Z,1.00
2023-03-21T20:04:48.122Z,1.00
2023-03-21T20:06:54.258Z,1.00
2023-03-21T20:09:41.355Z,1.00
2023-03-21T20:11:19.899Z,1.00
2023-03-21T20:13:24.021Z,1.00
2023-03-21T20:15:29.971Z,1.00
2023-03-21T20:17:33.507Z,1.00
2023-03-21T20:19:36.753Z,1.00
2023-03-21T20:21:49.043Z,1.00
2023-03-21T20:23:56.424Z,1.00
2023-03-21T20:25:59.198Z,1.00
2023-03-21T20:28:15.068Z,1.00
2023-03-21T20:30:20.582Z,1.00
2023-03-21T20:32:23.348Z,1.00
2023-03-21T20:34:26.127Z,1.00
2023-03-21T20:36:39.683Z,1.00
2023-03-21T20:38:43.443Z,1.00
2023-03-21T20:40:46.210Z,1.00
2023-03-21T20:42:50.273Z,1.00
2023-03-21T20:44:58.771Z,1.00
2023-03-21T20:47:05.400Z,1.00
2023-03-21T20:49:08.224Z,1.00
2023-03-21T20:52:14.822Z,1.00
2023-03-21T20:53:35.275Z,1.00
2023-03-21T20:55:38.158Z,1.00
2023-03-21T20:57:41.280Z,1.00
2023-03-21T20:59:45.002Z,1.00
2023-03-21T21:01:48.100Z,1.00
2023-03-21T21:03:53.098Z,1.00
2023-03-21T21:05:55.938Z,1.00
2023-03-21T21:07:58.876Z,1.00
2023-03-21T21:10:01.771Z,1.00
2023-03-21T21:12:07.536Z,1.00
2023-03-21T21:14:11.262Z,1.00
2023-03-21T21:16:14.689Z,1.00
2023-03-21T21:18:17.464Z,1.00
2023-03-21T21:20:21.964Z,1.00
2023-03-21T21:22:24.746Z,1.00
2023-03-21T21:24:27.556Z,1.00
2023-03-21T21:26:30.341Z,1.00
2023-03-21T21:28:33.209Z,1.00
2023-03-21T21:30:38.596Z,1.00
2023-03-21T21:32:41.997Z,1.00
2023-03-21T21:34:44.790Z,1.00
2023-03-21T21:36:49.644Z,1.00
2023-03-21T21:38:53.005Z,1.00
2023-03-21T21:40:57.570Z,1.00
2023-03-21T21:43:03.906Z,1.00
2023-03-21T21:45:08.536Z,1.00
2023-03-21T21:47:11.336Z,1.00
2023-03-21T21:49:14.091Z,1.00
2023-03-21T21:51:18.035Z,1.00
2023-03-21T21:53:22.779Z,1.00
2023-03-21T21:55:25.565Z,1.00
2023-03-21T21:57:30.439Z,1.00
2023-03-21T21:59:33.996Z,1.00
2023-03-21T22:01:38.556Z,1.00
2023-03-21T22:03:42.229Z,1.00
2023-03-21T22:05:45.393Z,1.00
2023-03-21T22:07:48.234Z,1.00
2023-03-21T22:09:52.547Z,1.00
2023-03-21T22:11:56.585Z,1.00
2023-03-21T22:13:59.393Z,1.00
2023-03-21T22:16:02.196Z,1.00
2023-03-21T22:18:05.178Z,1.00
2023-03-21T22:20:09.640Z,1.00
2023-03-21T22:22:12.473Z,1.00
2023-03-21T22:24:15.446Z,1.00
2023-03-21T22:26:19.578Z,1.00
2023-03-21T22:28:25.494Z,1.00
2023-03-21T22:30:28.279Z,1.00
2023-03-21T22:32:31.100Z,1.00
2023-03-21T22:34:33.879Z,1.00
2023-03-21T22:36:36.668Z,1.00
2023-03-21T22:38:41.798Z,1.00
2023-03-21T22:40:44.643Z,1.00
2023-03-21T22:42:48.748Z,1.00
2023-03-21T22:44:51.528Z,1.00
2023-03-21T22:46:54.303Z,1.00
2023-03-21T22:48:57.086Z,1.00
2023-03-21T22:51:00.501Z,1.00
2023-03-21T22:53:03.300Z,1.00
2023-03-21T22:55:09.641Z,1.00
2023-03-21T22:57:13.575Z,1.00
2023-03-21T22:59:17.754Z,1.00
2023-03-21T23:01:20.726Z,1.00
2023-03-21T23:03:23.520Z,1.00
2023-03-21T23:05:26.522Z,1.00
2023-03-21T23:07:29.282Z,1.00
2023-03-21T23:09:32.088Z,1.00
2023-03-21T23:11:34.856Z,1.00
2023-03-21T23:13:37.667Z,1.00
2023-03-21T23:15:41.895Z,1.00
2023-03-21T23:17:44.780Z,1.00
2023-03-21T23:19:47.580Z,1.00
2023-03-21T23:21:50.340Z,1.00
2023-03-21T23:23:53.718Z,1.00
2023-03-21T23:25:57.612Z,1.00
2023-03-21T23:28:00.441Z,1.00
2023-03-21T23:30:03.995Z,1.00
2023-03-21T23:32:08.094Z,1.00
2023-03-21T23:34:10.892Z,1.00
2023-03-21T23:36:13.862Z,1.00
2023-03-21T23:38:16.609Z,1.00
2023-03-21T23:40:19.543Z,1.00
2023-03-21T23:42:22.430Z,1.00
2023-03-21T23:44:25.263Z,1.00
2023-03-21T23:46:28.176Z,1.00
2023-03-21T23:48:32.405Z,1.00
2023-03-21T23:50:35.284Z,1.00
2023-03-21T23:52:38.223Z,1.00
2023-03-21T23:54:41.047Z,1.00
2023-03-21T23:56:43.917Z,1.00
2023-03-21T23:58:46.926Z,1.00
